createdAt,value
2022-08-30T00:00:32.168Z,1014.09
2022-08-30T00:01:32.149Z,1014.11
2022-08-30T00:02:32.232Z,1014.10
2022-08-30T00:03:32.284Z,1014.12
2022-08-30T00:04:32.103Z,1014.10
2022-08-30T00:05:32.081Z,1014.12
2022-08-30T00:06:32.066Z,1014.11
2022-08-30T00:07:32.048Z,1014.10
2022-08-30T00:08:32.028Z,1014.10
2022-08-30T00:09:32.007Z,1014.08
2022-08-30T00:10:31.991Z,1014.07
2022-08-30T00:11:31.974Z,1014.06
2022-08-30T00:12:31.956Z,1014.06
2022-08-30T00:13:31.937Z,1014.07
2022-08-30T00:14:31.923Z,1014.08
2022-08-30T00:15:31.973Z,1014.10
2022-08-30T00:16:31.886Z,1014.09
2022-08-30T00:17:31.865Z,1014.10
2022-08-30T00:18:31.851Z,1014.08
2022-08-30T00:19:31.831Z,1014.03
2022-08-30T00:20:31.815Z,1014.04
2022-08-30T00:21:31.794Z,1014.06
2022-08-30T00:22:31.782Z,1014.01
2022-08-30T00:23:31.760Z,1014.00
2022-08-30T00:24:31.743Z,1014.05
2022-08-30T00:25:31.728Z,1014.01
2022-08-30T00:26:31.711Z,1014.06
2022-08-30T00:27:31.691Z,1014.02
2022-08-30T00:28:31.675Z,1014.02
2022-08-30T00:29:31.657Z,1014.00
2022-08-30T00:30:31.639Z,1013.99
2022-08-30T00:31:31.687Z,1014.01
2022-08-30T00:32:31.605Z,1013.99
2022-08-30T00:33:31.589Z,1013.96
2022-08-30T00:34:31.571Z,1014.02
2022-08-30T00:35:31.548Z,1014.02
2022-08-30T00:36:31.554Z,1014.00
2022-08-30T00:37:31.511Z,1013.98
2022-08-30T00:38:31.497Z,1014.02
2022-08-30T00:39:31.480Z,1013.99
2022-08-30T00:40:31.503Z,1014.00
2022-08-30T00:41:31.441Z,1014.00
2022-08-30T00:42:31.428Z,1014.00
2022-08-30T00:43:31.407Z,1014.00
2022-08-30T00:44:31.390Z,1013.97
2022-08-30T00:45:31.373Z,1014.00
2022-08-30T00:46:31.438Z,1013.99
2022-08-30T00:47:31.338Z,1014.00
2022-08-30T00:48:31.320Z,1014.02
2022-08-30T00:49:31.300Z,1014.03
2022-08-30T00:50:31.293Z,1014.01
2022-08-30T00:51:31.304Z,1014.00
2022-08-30T00:52:31.250Z,1014.01
2022-08-30T00:53:31.229Z,1014.04
2022-08-30T00:54:31.213Z,1014.02
2022-08-30T00:55:31.194Z,1014.01
2022-08-30T00:56:31.178Z,1014.07
2022-08-30T00:57:31.158Z,1014.01
2022-08-30T00:58:31.141Z,1014.02
2022-08-30T00:59:31.123Z,1014.03
2022-08-30T01:00:31.106Z,1014.03
2022-08-30T01:01:31.910Z,1013.99
2022-08-30T01:02:31.115Z,1014.03
2022-08-30T01:03:31.054Z,1013.99
2022-08-30T01:04:31.034Z,1013.99
2022-08-30T01:05:31.015Z,1014.00
2022-08-30T01:06:32.619Z,1013.98
2022-08-30T01:07:30.980Z,1013.98
2022-08-30T01:08:30.962Z,1014.00
2022-08-30T01:09:30.943Z,1014.01
2022-08-30T01:10:30.929Z,1014.02
2022-08-30T01:11:30.911Z,1014.00
2022-08-30T01:12:30.890Z,1014.03
2022-08-30T01:13:30.883Z,1014.00
2022-08-30T01:14:30.857Z,1014.02
2022-08-30T01:15:30.864Z,1014.04
2022-08-30T01:16:30.820Z,1014.04
2022-08-30T01:17:30.800Z,1014.08
2022-08-30T01:18:30.786Z,1014.07
2022-08-30T01:19:30.764Z,1014.07
2022-08-30T01:20:30.749Z,1014.03
2022-08-30T01:21:31.263Z,1014.07
2022-08-30T01:22:30.712Z,1014.04
2022-08-30T01:23:30.693Z,1014.05
2022-08-30T01:24:30.681Z,1014.09
2022-08-30T01:25:30.658Z,1014.07
2022-08-30T01:26:30.652Z,1014.06
2022-08-30T01:27:30.623Z,1014.09
2022-08-30T01:28:30.608Z,1014.09
2022-08-30T01:29:30.587Z,1014.10
2022-08-30T01:30:30.624Z,1014.07
2022-08-30T01:31:30.551Z,1014.11
2022-08-30T01:32:30.565Z,1014.11
2022-08-30T01:33:30.515Z,1014.11
2022-08-30T01:34:30.498Z,1014.10
2022-08-30T01:35:30.480Z,1014.08
2022-08-30T01:36:30.495Z,1014.07
2022-08-30T01:37:30.441Z,1014.12
2022-08-30T01:38:30.426Z,1014.12
2022-08-30T01:39:30.410Z,1014.10
2022-08-30T01:40:30.422Z,1014.13
2022-08-30T01:41:30.369Z,1014.12
2022-08-30T01:42:30.354Z,1014.11
2022-08-30T01:43:30.332Z,1014.15
2022-08-30T01:44:30.315Z,1014.13
2022-08-30T01:45:30.295Z,1014.13
2022-08-30T01:46:30.339Z,1014.11
2022-08-30T01:47:30.262Z,1014.11
2022-08-30T01:48:31.213Z,1014.12
2022-08-30T01:49:30.226Z,1014.17
2022-08-30T01:50:30.213Z,1014.15
2022-08-30T01:51:30.190Z,1014.16
2022-08-30T01:52:30.175Z,1014.16
2022-08-30T01:53:30.151Z,1014.22
2022-08-30T01:54:33.380Z,1014.21
2022-08-30T01:55:30.120Z,1014.18
2022-08-30T01:56:30.102Z,1014.21
2022-08-30T01:57:30.081Z,1014.26
2022-08-30T01:58:30.064Z,1014.23
2022-08-30T01:59:30.045Z,1014.24
2022-08-30T02:00:30.025Z,1014.25
2022-08-30T02:01:30.047Z,1014.28
2022-08-30T02:02:29.991Z,1014.25
2022-08-30T02:03:30.014Z,1014.23
2022-08-30T02:04:29.954Z,1014.23
2022-08-30T02:05:29.938Z,1014.24
2022-08-30T02:06:29.921Z,1014.23
2022-08-30T02:07:29.900Z,1014.24
2022-08-30T02:08:29.883Z,1014.23
2022-08-30T02:09:29.861Z,1014.24
2022-08-30T02:10:29.846Z,1014.24
2022-08-30T02:11:29.828Z,1014.26
2022-08-30T02:12:29.808Z,1014.20
2022-08-30T02:13:29.789Z,1014.20
2022-08-30T02:14:29.774Z,1014.19
2022-08-30T02:15:29.753Z,1014.16
2022-08-30T02:16:29.804Z,1014.20
2022-08-30T02:17:29.720Z,1014.18
2022-08-30T02:18:29.701Z,1014.19
2022-08-30T02:19:29.681Z,1014.17
2022-08-30T02:20:29.665Z,1014.20
2022-08-30T02:21:29.642Z,1014.16
2022-08-30T02:22:29.627Z,1014.14
2022-08-30T02:23:29.615Z,1014.13
2022-08-30T02:24:29.591Z,1014.16
2022-08-30T02:25:29.571Z,1014.20
2022-08-30T02:26:29.554Z,1014.18
2022-08-30T02:27:29.536Z,1014.18
2022-08-30T02:28:29.520Z,1014.20
2022-08-30T02:29:29.499Z,1014.19
2022-08-30T02:30:29.541Z,1014.20
2022-08-30T02:31:29.467Z,1014.20
2022-08-30T02:32:29.447Z,1014.21
2022-08-30T02:33:29.429Z,1014.20
2022-08-30T02:34:29.410Z,1014.23
2022-08-30T02:35:29.390Z,1014.23
2022-08-30T02:36:29.373Z,1014.18
2022-08-30T02:37:29.353Z,1014.20
2022-08-30T02:38:29.335Z,1014.19
2022-08-30T02:39:29.317Z,1014.16
2022-08-30T02:40:29.374Z,1014.18
2022-08-30T02:41:29.278Z,1014.17
2022-08-30T02:42:29.263Z,1014.19
2022-08-30T02:43:29.242Z,1014.18
2022-08-30T02:44:29.226Z,1014.17
2022-08-30T02:45:29.210Z,1014.18
2022-08-30T02:46:29.252Z,1014.16
2022-08-30T02:47:29.169Z,1014.15
2022-08-30T02:48:29.153Z,1014.13
2022-08-30T02:49:33.580Z,1014.13
2022-08-30T02:50:29.119Z,1014.13
2022-08-30T02:51:29.098Z,1014.13
2022-08-30T02:52:29.079Z,1014.13
2022-08-30T02:53:29.060Z,1014.14
2022-08-30T02:54:29.043Z,1014.17
2022-08-30T02:55:29.023Z,1014.15
2022-08-30T02:56:29.010Z,1014.15
2022-08-30T02:57:28.992Z,1014.14
2022-08-30T02:58:28.969Z,1014.15
2022-08-30T02:59:28.965Z,1014.13
2022-08-30T03:00:28.933Z,1014.16
2022-08-30T03:01:29.492Z,1014.14
2022-08-30T03:02:28.896Z,1014.15
2022-08-30T03:03:28.960Z,1014.10
2022-08-30T03:04:28.858Z,1014.12
2022-08-30T03:05:28.840Z,1014.11
2022-08-30T03:06:28.824Z,1014.12
2022-08-30T03:07:28.803Z,1014.10
2022-08-30T03:08:28.787Z,1014.09
2022-08-30T03:09:28.765Z,1014.07
2022-08-30T03:10:28.752Z,1014.06
2022-08-30T03:11:28.733Z,1014.05
2022-08-30T03:12:28.713Z,1014.04
2022-08-30T03:13:28.694Z,1014.04
2022-08-30T03:14:28.678Z,1014.04
2022-08-30T03:15:28.659Z,1014.02
2022-08-30T03:16:28.691Z,1014.01
2022-08-30T03:17:28.620Z,1014.02
2022-08-30T03:18:28.602Z,1014.00
2022-08-30T03:19:28.584Z,1013.96
2022-08-30T03:20:28.566Z,1013.97
2022-08-30T03:21:28.550Z,1013.96
2022-08-30T03:22:28.528Z,1013.95
2022-08-30T03:23:28.510Z,1014.00
2022-08-30T03:24:28.493Z,1013.98
2022-08-30T03:25:28.472Z,1013.98
2022-08-30T03:26:28.455Z,1014.00
2022-08-30T03:27:28.437Z,1014.02
2022-08-30T03:28:28.418Z,1014.00
2022-08-30T03:29:28.399Z,1014.00
2022-08-30T03:30:28.386Z,1014.01
2022-08-30T03:31:28.412Z,1013.99
2022-08-30T03:32:28.346Z,1014.03
2022-08-30T03:33:28.330Z,1014.06
2022-08-30T03:34:28.304Z,1014.04
2022-08-30T03:35:28.290Z,1014.05
2022-08-30T03:36:28.269Z,1014.05
2022-08-30T03:37:28.253Z,1014.07
2022-08-30T03:38:28.234Z,1014.06
2022-08-30T03:39:28.215Z,1014.03
2022-08-30T03:40:28.257Z,1014.04
2022-08-30T03:41:28.177Z,1014.05
2022-08-30T03:42:28.157Z,1014.04
2022-08-30T03:43:28.141Z,1013.99
2022-08-30T03:44:28.119Z,1014.01
2022-08-30T03:45:28.176Z,1013.99
2022-08-30T03:46:28.087Z,1014.01
2022-08-30T03:47:28.067Z,1014.01
2022-08-30T03:48:28.047Z,1013.99
2022-08-30T03:49:28.032Z,1014.01
2022-08-30T03:50:28.014Z,1013.96
2022-08-30T03:51:27.994Z,1013.99
2022-08-30T03:52:27.976Z,1013.95
2022-08-30T03:53:27.958Z,1013.95
2022-08-30T03:54:27.937Z,1013.96
2022-08-30T03:55:27.922Z,1013.93
2022-08-30T03:56:27.901Z,1013.95
2022-08-30T03:57:27.884Z,1013.93
2022-08-30T03:58:27.861Z,1013.95
2022-08-30T03:59:27.846Z,1013.97
2022-08-30T04:00:27.829Z,1013.99
2022-08-30T04:01:27.919Z,1013.97
2022-08-30T04:02:27.833Z,1013.97
2022-08-30T04:03:27.772Z,1013.99
2022-08-30T04:04:27.752Z,1014.00
2022-08-30T04:05:27.736Z,1013.97
2022-08-30T04:06:27.714Z,1014.03
2022-08-30T04:07:27.699Z,1014.03
2022-08-30T04:08:27.676Z,1014.01
2022-08-30T04:09:27.661Z,1013.99
2022-08-30T04:10:27.643Z,1013.99
2022-08-30T04:11:27.624Z,1014.04
2022-08-30T04:12:27.604Z,1014.07
2022-08-30T04:13:27.586Z,1014.10
2022-08-30T04:14:27.569Z,1014.10
2022-08-30T04:15:27.550Z,1014.13
2022-08-30T04:16:27.584Z,1014.14
2022-08-30T04:17:27.510Z,1014.12
2022-08-30T04:18:27.493Z,1014.17
2022-08-30T04:19:27.476Z,1014.12
2022-08-30T04:20:27.464Z,1014.12
2022-08-30T04:21:27.436Z,1014.11
2022-08-30T04:22:27.416Z,1014.10
2022-08-30T04:23:27.400Z,1014.07
2022-08-30T04:24:27.377Z,1014.08
2022-08-30T04:25:27.362Z,1014.10
2022-08-30T04:26:29.329Z,1014.11
2022-08-30T04:27:27.325Z,1014.09
2022-08-30T04:28:27.305Z,1014.06
2022-08-30T04:29:27.286Z,1014.08
2022-08-30T04:30:27.266Z,1014.09
2022-08-30T04:31:27.339Z,1014.08
2022-08-30T04:32:27.234Z,1014.11
2022-08-30T04:33:27.213Z,1014.12
2022-08-30T04:34:27.192Z,1014.12
2022-08-30T04:35:27.179Z,1014.14
2022-08-30T04:36:27.154Z,1014.11
2022-08-30T04:37:27.152Z,1014.16
2022-08-30T04:39:44.616Z,1014.19
2022-08-30T04:40:44.681Z,1014.20
2022-08-30T04:41:44.587Z,1014.18
2022-08-30T04:42:44.563Z,1014.23
2022-08-30T04:44:42.009Z,1014.18
2022-08-30T04:45:42.122Z,1014.19
2022-08-30T04:46:44.381Z,1014.18
2022-08-30T04:47:41.953Z,1014.19
2022-08-30T04:48:41.935Z,1014.18
2022-08-30T04:49:41.918Z,1014.19
2022-08-30T04:50:41.895Z,1014.22
2022-08-30T04:51:41.877Z,1014.27
2022-08-30T04:52:41.860Z,1014.27
2022-08-30T04:53:41.840Z,1014.27
2022-08-30T04:54:41.822Z,1014.27
2022-08-30T04:55:41.803Z,1014.25
2022-08-30T04:56:41.781Z,1014.23
2022-08-30T04:57:41.766Z,1014.22
2022-08-30T04:58:41.746Z,1014.26
2022-08-30T04:59:41.729Z,1014.24
2022-08-30T05:00:41.751Z,1014.27
2022-08-30T05:01:45.527Z,1014.27
2022-08-30T05:02:41.732Z,1014.23
2022-08-30T05:03:41.653Z,1014.28
2022-08-30T05:04:41.636Z,1014.24
2022-08-30T05:05:41.618Z,1014.27
2022-08-30T05:06:41.595Z,1014.29
2022-08-30T05:07:41.580Z,1014.33
2022-08-30T05:08:41.566Z,1014.37
2022-08-30T05:09:41.542Z,1014.36
2022-08-30T05:10:41.522Z,1014.37
2022-08-30T05:11:41.511Z,1014.36
2022-08-30T05:12:41.490Z,1014.41
2022-08-30T05:13:41.467Z,1014.37
2022-08-30T05:14:41.473Z,1014.36
2022-08-30T05:15:41.432Z,1014.35
2022-08-30T05:16:41.590Z,1014.37
2022-08-30T05:17:41.392Z,1014.32
2022-08-30T05:18:41.374Z,1014.33
2022-08-30T05:19:41.356Z,1014.35
2022-08-30T05:20:41.334Z,1014.34
2022-08-30T05:21:41.433Z,1014.30
2022-08-30T05:22:41.298Z,1014.33
2022-08-30T05:23:41.282Z,1014.32
2022-08-30T05:24:41.261Z,1014.31
2022-08-30T05:25:41.243Z,1014.32
2022-08-30T05:26:41.293Z,1014.35
2022-08-30T05:27:41.242Z,1014.33
2022-08-30T05:28:41.184Z,1014.36
2022-08-30T05:29:41.166Z,1014.42
2022-08-30T05:30:41.147Z,1014.38
2022-08-30T05:35:01.912Z,1014.54
2022-08-30T05:36:01.897Z,1014.54
2022-08-30T05:37:02.054Z,1014.60
2022-08-30T05:38:01.863Z,1014.58
2022-08-30T05:39:01.834Z,1014.58
2022-08-30T05:40:01.834Z,1014.59
2022-08-30T05:41:06.420Z,1014.62
2022-08-30T05:42:01.780Z,1014.60
2022-08-30T05:43:01.759Z,1014.59
2022-08-30T05:44:01.745Z,1014.55
2022-08-30T05:45:01.739Z,1014.53
2022-08-30T05:46:01.705Z,1014.55
2022-08-30T05:47:01.688Z,1014.53
2022-08-30T05:48:01.668Z,1014.51
2022-08-30T05:49:01.646Z,1014.50
2022-08-30T05:50:01.635Z,1014.52
2022-08-30T05:51:01.610Z,1014.53
2022-08-30T05:52:01.595Z,1014.55
2022-08-30T05:53:01.573Z,1014.53
2022-08-30T05:54:01.556Z,1014.51
2022-08-30T05:55:01.535Z,1014.58
2022-08-30T05:56:01.529Z,1014.54
2022-08-30T05:57:01.500Z,1014.56
2022-08-30T05:58:01.483Z,1014.56
2022-08-30T05:59:01.461Z,1014.57
2022-08-30T06:00:01.443Z,1014.54
2022-08-30T06:01:01.424Z,1014.58
2022-08-30T06:02:01.458Z,1014.62
2022-08-30T06:03:01.467Z,1014.61
2022-08-30T06:04:03.950Z,1014.60
2022-08-30T06:05:01.349Z,1014.62
2022-08-30T06:06:01.331Z,1014.60
2022-08-30T06:07:01.311Z,1014.63
2022-08-30T06:08:01.293Z,1014.59
2022-08-30T06:09:01.271Z,1014.60
2022-08-30T06:10:01.254Z,1014.55
2022-08-30T06:11:01.234Z,1014.58
2022-08-30T06:12:01.218Z,1014.60
2022-08-30T06:13:01.201Z,1014.60
2022-08-30T06:14:01.183Z,1014.59
2022-08-30T06:15:01.159Z,1014.59
2022-08-30T06:16:01.191Z,1014.59
2022-08-30T06:17:01.203Z,1014.60
2022-08-30T06:18:01.109Z,1014.60
2022-08-30T06:19:01.085Z,1014.59
2022-08-30T06:20:01.138Z,1014.59
2022-08-30T06:21:01.049Z,1014.60
2022-08-30T06:22:01.031Z,1014.63
2022-08-30T06:23:01.015Z,1014.60
2022-08-30T06:24:00.992Z,1014.65
2022-08-30T06:25:00.976Z,1014.61
2022-08-30T06:26:00.959Z,1014.62
2022-08-30T06:27:00.938Z,1014.64
2022-08-30T06:28:00.918Z,1014.64
2022-08-30T06:29:00.899Z,1014.63
2022-08-30T06:30:00.883Z,1014.64
2022-08-30T06:31:00.925Z,1014.65
2022-08-30T06:32:00.842Z,1014.63
2022-08-30T06:33:00.825Z,1014.68
2022-08-30T06:34:00.806Z,1014.66
2022-08-30T06:35:00.787Z,1014.72
2022-08-30T06:36:04.279Z,1014.68
2022-08-30T06:37:00.752Z,1014.72
2022-08-30T06:38:00.733Z,1014.70
2022-08-30T06:39:00.713Z,1014.71
2022-08-30T06:40:00.742Z,1014.75
2022-08-30T06:41:00.673Z,1014.74
2022-08-30T06:42:00.657Z,1014.77
2022-08-30T06:43:00.638Z,1014.76
2022-08-30T06:44:00.619Z,1014.77
2022-08-30T06:45:00.599Z,1014.78
2022-08-30T06:46:00.584Z,1014.77
2022-08-30T06:47:00.598Z,1014.75
2022-08-30T06:48:00.551Z,1014.80
2022-08-30T06:49:00.560Z,1014.79
2022-08-30T06:50:00.507Z,1014.79
2022-08-30T06:51:00.489Z,1014.76
2022-08-30T06:52:00.472Z,1014.76
2022-08-30T06:53:00.449Z,1014.77
2022-08-30T06:54:00.434Z,1014.78
2022-08-30T06:55:00.418Z,1014.80
2022-08-30T06:56:00.399Z,1014.76
2022-08-30T06:57:00.387Z,1014.80
2022-08-30T06:58:00.359Z,1014.79
2022-08-30T06:59:00.340Z,1014.80
2022-08-30T07:00:00.325Z,1014.85
2022-08-30T07:01:00.303Z,1014.82
2022-08-30T07:02:00.359Z,1014.82
2022-08-30T07:03:00.300Z,1014.82
2022-08-30T07:04:00.247Z,1014.82
2022-08-30T07:05:00.231Z,1014.81
2022-08-30T07:06:00.211Z,1014.80
2022-08-30T07:07:00.191Z,1014.79
2022-08-30T07:08:00.174Z,1014.78
2022-08-30T07:09:00.154Z,1014.82
2022-08-30T07:10:00.140Z,1014.78
2022-08-30T07:11:00.117Z,1014.80
2022-08-30T07:12:00.107Z,1014.83
2022-08-30T07:13:00.083Z,1014.78
2022-08-30T07:14:00.072Z,1014.83
2022-08-30T07:15:00.046Z,1014.79
2022-08-30T07:16:00.082Z,1014.84
2022-08-30T07:17:00.006Z,1014.87
2022-08-30T07:17:59.991Z,1014.85
2022-08-30T07:18:59.969Z,1014.86
2022-08-30T07:19:59.956Z,1014.85
2022-08-30T07:20:59.934Z,1014.86
2022-08-30T07:21:59.919Z,1014.91
2022-08-30T07:22:59.897Z,1014.91
2022-08-30T07:23:59.882Z,1014.85
2022-08-30T07:24:59.859Z,1014.87
2022-08-30T07:25:59.847Z,1014.88
2022-08-30T07:26:59.827Z,1014.88
2022-08-30T07:27:59.810Z,1014.88
2022-08-30T07:28:59.809Z,1014.84
2022-08-30T07:29:59.773Z,1014.87
2022-08-30T07:30:59.811Z,1014.82
2022-08-30T07:31:59.735Z,1014.76
2022-08-30T07:32:59.714Z,1014.81
2022-08-30T07:33:59.698Z,1014.80
2022-08-30T07:34:59.679Z,1014.78
2022-08-30T07:35:59.727Z,1014.75
2022-08-30T07:36:59.642Z,1014.77
2022-08-30T07:37:59.624Z,1014.75
2022-08-30T07:38:59.604Z,1014.75
2022-08-30T07:39:59.624Z,1014.75
2022-08-30T07:40:59.567Z,1014.78
2022-08-30T07:41:59.550Z,1014.78
2022-08-30T07:42:59.532Z,1014.80
2022-08-30T07:43:59.514Z,1014.80
2022-08-30T07:44:59.495Z,1014.81
2022-08-30T07:45:59.522Z,1014.86
2022-08-30T07:46:59.458Z,1014.88
2022-08-30T07:47:59.441Z,1014.87
2022-08-30T07:48:59.422Z,1014.86
2022-08-30T07:49:59.409Z,1014.87
2022-08-30T07:51:04.571Z,1014.91
2022-08-30T07:51:59.367Z,1014.91
2022-08-30T07:52:59.350Z,1014.92
2022-08-30T07:53:59.334Z,1014.92
2022-08-30T07:54:59.314Z,1014.90
2022-08-30T07:55:59.295Z,1014.91
2022-08-30T07:56:59.278Z,1014.92
2022-08-30T07:57:59.360Z,1014.89
2022-08-30T07:58:59.241Z,1014.90
2022-08-30T07:59:59.225Z,1014.94
2022-08-30T08:00:59.205Z,1014.92
2022-08-30T08:01:59.237Z,1014.94
2022-08-30T08:02:59.292Z,1014.95
2022-08-30T08:03:59.152Z,1014.98
2022-08-30T08:04:59.132Z,1014.95
2022-08-30T08:05:59.116Z,1015.01
2022-08-30T08:06:59.097Z,1014.93
2022-08-30T08:07:59.078Z,1014.93
2022-08-30T08:08:59.058Z,1014.92
2022-08-30T08:09:59.046Z,1015.00
2022-08-30T08:10:59.023Z,1014.92
2022-08-30T08:11:59.006Z,1014.95
2022-08-30T08:12:58.985Z,1014.97
2022-08-30T08:13:58.971Z,1015.05
2022-08-30T08:14:58.951Z,1015.02
2022-08-30T08:15:58.965Z,1014.98
2022-08-30T08:16:58.915Z,1014.98
2022-08-30T08:17:58.898Z,1014.96
2022-08-30T08:18:58.879Z,1014.96
2022-08-30T08:19:58.862Z,1014.94
2022-08-30T08:20:58.850Z,1014.95
2022-08-30T08:22:19.451Z,1015.00
2022-08-30T08:22:58.812Z,1015.01
2022-08-30T08:23:58.797Z,1014.99
2022-08-30T08:24:58.770Z,1014.96
2022-08-30T08:25:58.757Z,1014.97
2022-08-30T08:26:58.736Z,1014.94
2022-08-30T08:27:58.720Z,1014.93
2022-08-30T08:28:58.700Z,1014.98
2022-08-30T08:29:58.683Z,1014.93
2022-08-30T08:30:58.706Z,1014.96
2022-08-30T08:31:58.649Z,1014.94
2022-08-30T08:32:58.628Z,1014.92
2022-08-30T08:33:58.618Z,1014.89
2022-08-30T08:34:58.594Z,1014.91
2022-08-30T08:35:58.578Z,1014.89
2022-08-30T08:36:58.558Z,1014.85
2022-08-30T08:37:58.542Z,1014.89
2022-08-30T08:38:58.530Z,1014.88
2022-08-30T08:39:58.595Z,1014.85
2022-08-30T08:40:58.486Z,1014.82
2022-08-30T08:41:58.474Z,1014.81
2022-08-30T08:42:58.461Z,1014.80
2022-08-30T08:43:58.434Z,1014.83
2022-08-30T08:44:58.416Z,1014.86
2022-08-30T08:45:58.429Z,1014.87
2022-08-30T08:46:58.389Z,1014.83
2022-08-30T08:47:58.364Z,1014.80
2022-08-30T08:49:00.745Z,1014.85
2022-08-30T08:49:58.330Z,1014.83
2022-08-30T08:51:00.693Z,1014.82
2022-08-30T08:51:58.294Z,1014.90
2022-08-30T08:52:58.278Z,1014.87
2022-08-30T08:53:58.258Z,1014.91
2022-08-30T08:54:59.168Z,1014.91
2022-08-30T08:55:58.231Z,1014.87
2022-08-30T08:56:58.279Z,1014.90
2022-08-30T08:57:58.186Z,1014.87
2022-08-30T08:58:58.169Z,1014.89
2022-08-30T08:59:58.152Z,1014.88
2022-08-30T09:00:58.141Z,1014.86
2022-08-30T09:01:58.355Z,1014.91
2022-08-30T09:02:58.101Z,1014.96
2022-08-30T09:03:58.084Z,1014.92
2022-08-30T09:04:58.165Z,1014.93
2022-08-30T09:05:58.048Z,1014.89
2022-08-30T09:06:58.026Z,1014.90
2022-08-30T09:07:58.019Z,1014.88
2022-08-30T09:08:57.993Z,1014.90
2022-08-30T09:09:57.977Z,1014.93
2022-08-30T09:10:57.960Z,1014.93
2022-08-30T09:11:57.941Z,1014.91
2022-08-30T09:13:00.049Z,1014.93
2022-08-30T09:13:57.907Z,1014.95
2022-08-30T09:14:57.888Z,1014.95
2022-08-30T09:15:59.546Z,1014.93
2022-08-30T09:16:57.855Z,1014.91
2022-08-30T09:17:57.838Z,1014.91
2022-08-30T09:18:57.820Z,1014.94
2022-08-30T09:19:57.803Z,1014.90
2022-08-30T09:20:57.783Z,1014.88
2022-08-30T09:21:57.768Z,1014.91
2022-08-30T09:22:57.747Z,1014.91
2022-08-30T09:23:57.735Z,1014.94
2022-08-30T09:24:57.713Z,1014.94
2022-08-30T09:25:57.699Z,1014.90
2022-08-30T09:26:57.678Z,1014.87
2022-08-30T09:27:57.668Z,1014.88
2022-08-30T09:28:57.646Z,1014.84
2022-08-30T09:29:57.629Z,1014.85
2022-08-30T09:30:57.633Z,1014.87
2022-08-30T09:32:25.073Z,1014.87
2022-08-30T09:32:57.626Z,1014.88
2022-08-30T09:33:57.561Z,1014.81
2022-08-30T09:34:57.544Z,1014.82
2022-08-30T09:35:57.524Z,1014.81
2022-08-30T09:36:57.508Z,1014.82
2022-08-30T09:37:57.491Z,1014.82
2022-08-30T09:38:57.479Z,1014.81
2022-08-30T09:39:57.501Z,1014.79
2022-08-30T09:40:57.438Z,1014.84
2022-08-30T09:41:57.425Z,1014.87
2022-08-30T09:42:57.403Z,1014.86
2022-08-30T09:43:57.388Z,1014.82
2022-08-30T09:44:57.374Z,1014.83
2022-08-30T09:45:57.438Z,1014.81
2022-08-30T09:46:57.669Z,1014.80
2022-08-30T09:47:57.321Z,1014.79
2022-08-30T09:48:57.302Z,1014.78
2022-08-30T09:49:57.284Z,1014.83
2022-08-30T09:50:57.268Z,1014.86
2022-08-30T09:51:57.248Z,1014.87
2022-08-30T09:52:57.230Z,1014.81
2022-08-30T09:54:57.200Z,1014.84
2022-08-30T09:55:57.189Z,1014.82
2022-08-30T09:56:57.175Z,1014.80
2022-08-30T09:57:57.145Z,1014.81
2022-08-30T09:58:57.132Z,1014.82
2022-08-30T09:59:57.115Z,1014.83
2022-08-30T10:00:57.158Z,1014.84
2022-08-30T10:01:57.078Z,1014.84
2022-08-30T10:02:57.065Z,1014.83
2022-08-30T10:03:57.060Z,1014.83
2022-08-30T10:04:57.040Z,1014.85
2022-08-30T10:05:57.743Z,1014.78
2022-08-30T10:06:57.025Z,1014.83
2022-08-30T10:07:56.981Z,1014.79
2022-08-30T10:08:56.966Z,1014.80
2022-08-30T10:09:56.947Z,1014.77
2022-08-30T10:10:56.936Z,1014.77
2022-08-30T10:11:56.916Z,1014.75
2022-08-30T10:12:56.901Z,1014.76
2022-08-30T10:13:56.890Z,1014.77
2022-08-30T10:14:56.869Z,1014.71
2022-08-30T10:15:56.859Z,1014.70
2022-08-30T10:16:56.838Z,1014.72
2022-08-30T10:17:56.821Z,1014.73
2022-08-30T10:18:56.823Z,1014.74
2022-08-30T10:19:56.789Z,1014.73
2022-08-30T10:20:56.776Z,1014.71
2022-08-30T10:21:56.757Z,1014.74
2022-08-30T10:22:58.759Z,1014.74
2022-08-30T10:23:56.728Z,1014.69
2022-08-30T10:24:56.715Z,1014.70
2022-08-30T10:25:56.695Z,1014.69
2022-08-30T10:26:56.682Z,1014.63
2022-08-30T10:27:56.664Z,1014.67
2022-08-30T10:28:56.653Z,1014.68
2022-08-30T10:29:56.637Z,1014.66
2022-08-30T10:30:56.622Z,1014.70
2022-08-30T10:31:56.604Z,1014.68
2022-08-30T10:32:56.591Z,1014.68
2022-08-30T10:33:56.573Z,1014.66
2022-08-30T10:34:56.560Z,1014.65
2022-08-30T10:35:56.544Z,1014.64
2022-08-30T10:36:56.530Z,1014.64
2022-08-30T10:37:56.513Z,1014.62
2022-08-30T10:38:56.537Z,1014.60
2022-08-30T10:39:56.532Z,1014.61
2022-08-30T10:40:56.469Z,1014.58
2022-08-30T10:41:56.454Z,1014.60
2022-08-30T10:42:56.441Z,1014.58
2022-08-30T10:43:56.424Z,1014.62
2022-08-30T10:44:56.416Z,1014.61
2022-08-30T10:45:56.392Z,1014.61
2022-08-30T10:46:56.378Z,1014.59
2022-08-30T10:47:56.364Z,1014.64
2022-08-30T10:48:56.348Z,1014.62
2022-08-30T10:49:56.329Z,1014.60
2022-08-30T10:50:56.330Z,1014.63
2022-08-30T10:51:58.848Z,1014.61
2022-08-30T10:52:56.288Z,1014.61
2022-08-30T10:53:56.274Z,1014.59
2022-08-30T10:54:56.257Z,1014.63
2022-08-30T10:55:56.240Z,1014.62
2022-08-30T10:56:56.227Z,1014.62
2022-08-30T10:57:56.209Z,1014.65
2022-08-30T10:58:56.196Z,1014.59
2022-08-30T10:59:56.182Z,1014.61
2022-08-30T11:00:56.233Z,1014.57
2022-08-30T11:01:56.154Z,1014.56
2022-08-30T11:02:56.135Z,1014.55
2022-08-30T11:03:56.120Z,1014.57
2022-08-30T11:04:56.108Z,1014.58
2022-08-30T11:05:56.088Z,1014.54
2022-08-30T11:06:56.077Z,1014.54
2022-08-30T11:07:56.058Z,1014.60
2022-08-30T11:08:56.047Z,1014.58
2022-08-30T11:09:56.027Z,1014.63
2022-08-30T11:10:56.015Z,1014.57
2022-08-30T11:11:56.001Z,1014.54
2022-08-30T11:12:55.987Z,1014.59
2022-08-30T11:13:57.493Z,1014.55
2022-08-30T11:14:55.955Z,1014.53
2022-08-30T11:15:55.957Z,1014.58
2022-08-30T11:16:55.922Z,1014.54
2022-08-30T11:17:55.911Z,1014.55
2022-08-30T11:18:55.894Z,1014.57
2022-08-30T11:19:55.877Z,1014.56
2022-08-30T11:20:55.862Z,1014.56
2022-08-30T11:21:55.847Z,1014.56
2022-08-30T11:22:55.836Z,1014.51
2022-08-30T11:23:55.815Z,1014.51
2022-08-30T11:24:55.800Z,1014.51
2022-08-30T11:25:57.892Z,1014.51
2022-08-30T11:26:55.769Z,1014.54
2022-08-30T11:27:55.754Z,1014.50
2022-08-30T11:28:55.742Z,1014.55
2022-08-30T11:29:55.732Z,1014.58
2022-08-30T11:30:55.747Z,1014.54
2022-08-30T11:31:55.721Z,1014.49
2022-08-30T11:32:55.746Z,1014.49
2022-08-30T11:33:55.781Z,1014.45
2022-08-30T11:34:55.695Z,1014.46
2022-08-30T11:35:55.661Z,1014.47
2022-08-30T11:36:55.676Z,1014.46
2022-08-30T11:37:55.626Z,1014.47
2022-08-30T11:38:55.641Z,1014.43
2022-08-30T11:39:55.629Z,1014.50
2022-08-30T11:40:55.602Z,1014.51
2022-08-30T11:41:55.605Z,1014.49
2022-08-30T11:42:55.594Z,1014.45
2022-08-30T11:43:55.554Z,1014.45
2022-08-30T11:44:55.548Z,1014.41
2022-08-30T11:45:55.645Z,1014.42
2022-08-30T11:46:55.506Z,1014.40
2022-08-30T11:47:55.540Z,1014.38
2022-08-30T11:48:55.908Z,1014.41
2022-08-30T11:49:55.411Z,1014.39
2022-08-30T11:50:55.412Z,1014.41
2022-08-30T11:52:23.636Z,1014.38
2022-08-30T11:52:55.364Z,1014.34
2022-08-30T11:53:55.382Z,1014.34
2022-08-30T11:54:55.347Z,1014.36
2022-08-30T11:55:55.333Z,1014.37
2022-08-30T11:56:55.338Z,1014.33
2022-08-30T11:57:55.294Z,1014.33
2022-08-30T11:58:55.380Z,1014.32
2022-08-30T11:59:55.284Z,1014.35
2022-08-30T12:00:55.290Z,1014.33
2022-08-30T12:01:55.466Z,1014.32
2022-08-30T12:02:55.442Z,1014.31
2022-08-30T12:03:55.252Z,1014.28
2022-08-30T12:04:55.287Z,1014.26
2022-08-30T12:05:55.247Z,1014.22
2022-08-30T12:06:55.193Z,1014.29
2022-08-30T12:07:55.176Z,1014.28
2022-08-30T12:08:59.999Z,1014.23
2022-08-30T12:09:55.154Z,1014.25
2022-08-30T12:10:56.272Z,1014.25
2022-08-30T12:11:55.106Z,1014.24